| time (UTC) | temp F | wind direction | speed MPH | gust MPH | rain 1hr in | rain 24hr in | rain mn in | humidity % | barometer mb |
| 20260903055539 | 60 | 180 | 4.0 | 8.0 | 0.01 | 0.11 | 0.11 | 64 | 1006.8 |
| 20260903054519 | 60 | 180 | 6.0 | 15.0 | 0.02 | 0.11 | 0.11 | 64 | 1006.9 |
| 20260903053519 | 60 | 180 | 3.0 | 5.0 | 0.03 | 0.11 | 0.11 | 65 | 1007.0 |
| 20260903052519 | 60 | 180 | 4.0 | 8.0 | 0.04 | 0.11 | 0.11 | 66 | 1007.0 |
| 20260903051519 | 60 | 180 | 4.0 | 7.0 | 0.04 | 0.10 | 0.10 | 66 | 1007.0 |
| 20260903050519 | 60 | 180 | 3.0 | 6.0 | 0.05 | 0.10 | 0.10 | 67 | 1007.1 |
| 20260903045519 | 60 | 158 | 2.0 | 8.0 | 0.06 | 0.10 | 0.10 | 68 | 1007.0 |
| 20260903044539 | 60 | 158 | 2.0 | 9.0 | 0.06 | 0.09 | 0.09 | 67 | 1007.0 |
| 20260903043519 | 60 | 158 | 2.0 | 8.0 | 0.05 | 0.08 | 0.08 | 68 | 1006.9 |
| 20260903042519 | 60 | 158 | 2.0 | 5.0 | 0.05 | 0.07 | 0.07 | 68 | 1007.0 |
| 20260903041519 | 60 | 158 | 2.0 | 7.0 | 0.05 | 0.06 | 0.06 | 68 | 1007.0 |
| 20260903040519 | 60 | 158 | 2.0 | 8.0 | 0.04 | 0.05 | 0.05 | 68 | 1007.1 |
| 20260903035519 | 60 | 158 | 1.0 | 4.0 | 0.03 | 0.04 | 0.04 | 67 | 1007.1 |
| 20260903034519 | 60 | 158 | 2.0 | 8.0 | 0.03 | 0.03 | 0.03 | 66 | 1007.0 |
| 20260903033519 | 61 | 158 | 1.0 | 3.0 | 0.03 | 0.03 | 0.03 | 66 | 1006.9 |
| 20260903032519 | 60 | 0.0 | 2.0 | 0.02 | 0.02 | 0.02 | 66 | 1006.8 | |
| 20260903031519 | 60 | 0.0 | 4.0 | 0.01 | 0.01 | 0.01 | 66 | 1006.7 | |
| 20260903030519 | 60 | 0.0 | 4.0 | 0.01 | 0.01 | 0.01 | 65 | 1006.5 | |
| 20260903025519 | 60 | 203 | 1.0 | 5.0 | 0.01 | 0.01 | 0.01 | 65 | 1006.5 |
| 20260903024519 | 61 | 0.0 | 0.0 | 0.00 | 0.00 | 0.00 | 63 | 1006.5 | |
| 20260903023519 | 61 | 203 | 2.0 | 4.0 | 0.00 | 0.00 | 0.00 | 62 | 1006.5 |
| 20260903022518 | 62 | 203 | 6.0 | 11.0 | 0.00 | 0.00 | 0.00 | 59 | 1006.5 |
| 20260903021539 | 63 | 225 | 7.0 | 15.0 | 0.00 | 0.00 | 0.00 | 55 | 1006.5 |
| 20260903020519 | 64 | 203 | 7.0 | 13.0 | 0.00 | 0.00 | 0.00 | 53 | 1006.5 |
| 20260903015519 | 64 | 203 | 7.0 | 16.0 | 0.00 | 0.00 | 0.00 | 51 | 1006.5 |
| 20260903014519 | 65 | 203 | 7.0 | 13.0 | 0.00 | 0.00 | 0.00 | 50 | 1006.4 |
| 20260903013519 | 65 | 203 | 7.0 | 14.0 | 0.00 | 0.00 | 0.00 | 50 | 1006.4 |
| 20260903012559 | 65 | 225 | 6.0 | 12.0 | 0.00 | 0.00 | 0.00 | 49 | 1006.5 |
| 20260903011518 | 65 | 225 | 6.0 | 12.0 | 0.00 | 0.00 | 0.00 | 48 | 1006.3 |
| 20260903010519 | 66 | 225 | 4.0 | 8.0 | 0.00 | 0.00 | 0.00 | 48 | 1006.2 |
| 20260903005519 | 65 | 203 | 6.0 | 17.0 | 0.00 | 0.00 | 0.00 | 48 | 1006.2 |
| 20260903004519 | 65 | 203 | 7.0 | 14.0 | 0.00 | 0.00 | 0.00 | 47 | 1006.1 |
| 20260903003539 | 66 | 225 | 6.0 | 12.0 | 0.00 | 0.00 | 0.00 | 46 | 1006.1 |
| 20260903002518 | 67 | 225 | 8.0 | 15.0 | 0.00 | 0.00 | 0.00 | 44 | 1006.2 |
| 20260903001519 | 67 | 225 | 12.0 | 20.0 | 0.00 | 0.00 | 0.00 | 41 | 1006.0 |
| 20260903000518 | 68 | 225 | 10.0 | 19.0 | 0.00 | 0.00 | 0.00 | 39 | 1006.0 |
| 20260902235538 | 68 | 225 | 10.0 | 16.0 | 0.00 | 0.00 | 0.00 | 38 | 1005.8 |
| 20260902234518 | 68 | 225 | 8.0 | 15.0 | 0.00 | 0.00 | 0.00 | 40 | 1005.8 |
| 20260902233520 | 68 | 225 | 9.0 | 18.0 | 0.00 | 0.00 | 0.00 | 42 | 1005.8 |
| 20260902232539 | 68 | 225 | 10.0 | 19.0 | 0.00 | 0.00 | 0.00 | 42 | 1005.8 |
| 20260902231519 | 67 | 225 | 11.0 | 18.0 | 0.00 | 0.00 | 0.00 | 43 | 1005.7 |
| 20260902230518 | 67 | 225 | 13.0 | 23.0 | 0.00 | 0.00 | 0.00 | 45 | 1005.6 |
| 20260902225520 | 68 | 225 | 14.0 | 22.0 | 0.00 | 0.00 | 0.00 | 44 | 1005.5 |
| 20260902224521 | 68 | 225 | 15.0 | 24.0 | 0.00 | 0.00 | 0.00 | 46 | 1005.6 |
| 20260902223519 | 71 | 225 | 20.0 | 31.0 | 0.00 | 0.00 | 0.00 | 40 | 1005.4 |
| 20260902222518 | 74 | 225 | 2.0 | 5.0 | 0.00 | 0.00 | 0.00 | 35 | 1005.1 |
| 20260902221520 | 75 | 203 | 2.0 | 5.0 | 0.00 | 0.00 | 0.00 | 35 | 1004.9 |
| 20260902220540 | 74 | 0.0 | 4.0 | 0.00 | 0.00 | 0.00 | 32 | 1004.8 | |
| 20260902215518 | 74 | 225 | 2.0 | 5.0 | 0.00 | 0.00 | 0.00 | 34 | 1005.0 |
| 20260902214538 | 75 | 225 | 3.0 | 6.0 | 0.00 | 0.00 | 0.00 | 32 | 1005.0 |
| 20260902213520 | 75 | 225 | 3.0 | 6.0 | 0.00 | 0.00 | 0.00 | 31 | 1004.9 |
| 20260902212540 | 76 | 203 | 3.0 | 7.0 | 0.00 | 0.00 | 0.00 | 30 | 1005.1 |
| 20260902211520 | 76 | 203 | 2.0 | 4.0 | 0.00 | 0.00 | 0.00 | 31 | 1004.9 |
| 20260902210520 | 76 | 180 | 2.0 | 3.0 | 0.00 | 0.00 | 0.00 | 31 | 1005.1 |
| 20260902205520 | 76 | 158 | 2.0 | 5.0 | 0.00 | 0.00 | 0.00 | 30 | 1005.2 |
| 20260902204519 | 76 | 203 | 3.0 | 8.0 | 0.00 | 0.00 | 0.00 | 29 | 1005.2 |
| 20260902203540 | 77 | 225 | 3.0 | 9.0 | 0.00 | 0.00 | 0.00 | 30 | 1005.3 |
| 20260902202519 | 75 | 225 | 4.0 | 10.0 | 0.00 | 0.00 | 0.00 | 30 | 1005.4 |
| 20260902201540 | 74 | 225 | 2.0 | 4.0 | 0.00 | 0.00 | 0.00 | 32 | 1005.7 |
| 20260902200518 | 75 | 225 | 6.0 | 11.0 | 0.00 | 0.00 | 0.00 | 30 | 1005.7 |
| 20260902195520 | 75 | 203 | 5.0 | 11.0 | 0.00 | 0.00 | 0.00 | 30 | 1006.0 |
| 20260902194520 | 74 | 203 | 3.0 | 9.0 | 0.00 | 0.00 | 0.00 | 31 | 1006.1 |
| 20260902193520 | 74 | 225 | 8.0 | 13.0 | 0.00 | 0.00 | 0.00 | 31 | 1006.3 |
| 20260902192520 | 74 | 225 | 8.0 | 14.0 | 0.00 | 0.00 | 0.00 | 33 | 1006.4 |
| 20260902191519 | 73 | 203 | 6.0 | 11.0 | 0.00 | 0.00 | 0.00 | 32 | 1006.4 |
| 20260902190541 | 72 | 203 | 6.0 | 13.0 | 0.00 | 0.00 | 0.00 | 33 | 1006.5 |
| 20260902185520 | 73 | 203 | 5.0 | 10.0 | 0.00 | 0.00 | 0.00 | 36 | 1006.6 |
| 20260902184540 | 71 | 180 | 2.0 | 6.0 | 0.00 | 0.00 | 0.00 | 38 | 1006.6 |
| 20260902183520 | 70 | 203 | 1.0 | 4.0 | 0.00 | 0.00 | 0.00 | 39 | 1006.7 |
| 20260902182541 | 71 | 203 | 3.0 | 10.0 | 0.00 | 0.00 | 0.00 | 36 | 1006.9 |
| 20260902181520 | 70 | 203 | 3.0 | 7.0 | 0.00 | 0.00 | 0.00 | 41 | 1006.9 |
| 20260902180520 | 70 | 203 | 4.0 | 8.0 | 0.00 | 0.00 | 0.00 | 40 | 1007.0 |
| 20260902175520 | 70 | 203 | 6.0 | 12.0 | 0.00 | 0.00 | 0.00 | 38 | 1007.1 |
| 20260902174519 | 69 | 203 | 6.0 | 15.0 | 0.00 | 0.00 | 0.00 | 39 | 1007.1 |
| 20260902173520 | 68 | 203 | 2.0 | 6.0 | 0.00 | 0.00 | 0.00 | 42 | 1007.0 |
| 20260902172520 | 67 | 203 | 2.0 | 5.0 | 0.00 | 0.00 | 0.00 | 45 | 1006.9 |
| 20260902171520 | 67 | 0.0 | 2.0 | 0.00 | 0.00 | 0.00 | 47 | 1007.0 | |
| 20260902170520 | 66 | 158 | 1.0 | 6.0 | 0.00 | 0.00 | 0.00 | 47 | 1007.0 |
| 20260902165520 | 66 | 225 | 2.0 | 4.0 | 0.00 | 0.00 | 0.00 | 51 | 1007.0 |
| 20260902164520 | 64 | 203 | 2.0 | 5.0 | 0.00 | 0.00 | 0.00 | 52 | 1006.9 |
| 20260902163540 | 63 | 203 | 2.0 | 4.0 | 0.00 | 0.00 | 0.00 | 53 | 1007.0 |
| 20260902162520 | 63 | 203 | 3.0 | 6.0 | 0.00 | 0.00 | 0.00 | 53 | 1007.0 |
| 20260902161520 | 64 | 203 | 5.0 | 9.0 | 0.00 | 0.00 | 0.00 | 52 | 1007.2 |
| 20260902160540 | 65 | 203 | 5.0 | 11.0 | 0.00 | 0.00 | 0.00 | 51 | 1007.2 |
| 20260902155520 | 64 | 203 | 5.0 | 9.0 | 0.00 | 0.00 | 0.00 | 53 | 1007.4 |
| 20260902154519 | 63 | 203 | 5.0 | 11.0 | 0.00 | 0.00 | 0.00 | 54 | 1007.4 |
| 20260902153520 | 62 | 225 | 2.0 | 10.0 | 0.00 | 0.00 | 0.00 | 57 | 1007.5 |
| 20260902152519 | 61 | 0.0 | 4.0 | 0.00 | 0.00 | 0.00 | 57 | 1007.3 | |
| 20260902151520 | 61 | 0.0 | 1.0 | 0.00 | 0.00 | 0.00 | 58 | 1007.3 | |
| 20260902150519 | 60 | 203 | 2.0 | 5.0 | 0.00 | 0.00 | 0.00 | 59 | 1007.2 |
| 20260902145520 | 59 | 203 | 2.0 | 4.0 | 0.00 | 0.00 | 0.00 | 60 | 1007.2 |
| 20260902144519 | 58 | 203 | 4.0 | 6.0 | 0.00 | 0.00 | 0.00 | 61 | 1007.2 |
| 20260902143519 | 58 | 203 | 2.0 | 7.0 | 0.00 | 0.00 | 0.00 | 61 | 1007.1 |
| 20260902142520 | 58 | 0.0 | 2.0 | 0.00 | 0.00 | 0.00 | 61 | 1007.1 | |
| 20260902141519 | 58 | 225 | 4.0 | 7.0 | 0.00 | 0.00 | 0.00 | 61 | 1006.9 |
| 20260902140520 | 58 | 203 | 2.0 | 5.0 | 0.00 | 0.00 | 0.00 | 61 | 1006.9 |
| 20260902135519 | 58 | 203 | 3.0 | 7.0 | 0.00 | 0.00 | 0.00 | 60 | 1006.8 |
| 20260902134520 | 59 | 225 | 4.0 | 7.0 | 0.00 | 0.00 | 0.00 | 59 | 1006.8 |
| 20260902133520 | 59 | 225 | 5.0 | 9.0 | 0.00 | 0.00 | 0.00 | 58 | 1006.6 |
| 20260902132519 | 60 | 225 | 5.0 | 9.0 | 0.00 | 0.00 | 0.00 | 57 | 1006.4 |
| 20260902131519 | 60 | 225 | 9.0 | 14.0 | 0.00 | 0.00 | 0.00 | 57 | 1006.2 |
| 20260902130519 | 60 | 225 | 7.0 | 11.0 | 0.00 | 0.00 | 0.00 | 57 | 1006.1 |
| 20260902125519 | 60 | 225 | 6.0 | 11.0 | 0.00 | 0.00 | 0.00 | 58 | 1006.2 |
| 20260902124520 | 60 | 225 | 8.0 | 16.0 | 0.00 | 0.00 | 0.00 | 58 | 1006.3 |
| 20260902123519 | 60 | 225 | 12.0 | 20.0 | 0.00 | 0.00 | 0.00 | 57 | 1006.3 |
| 20260902122519 | 60 | 225 | 11.0 | 19.0 | 0.00 | 0.00 | 0.00 | 57 | 1006.4 |
| 20260902121519 | 60 | 225 | 9.0 | 17.0 | 0.00 | 0.00 | 0.00 | 57 | 1006.5 |
| 20260902120519 | 61 | 203 | 7.0 | 13.0 | 0.00 | 0.00 | 0.00 | 56 | 1006.7 |
| 20260902115520 | 61 | 203 | 7.0 | 17.0 | 0.00 | 0.00 | 0.00 | 55 | 1006.8 |
| 20260902114520 | 61 | 203 | 8.0 | 14.0 | 0.00 | 0.00 | 0.00 | 55 | 1006.8 |
| 20260902113519 | 61 | 203 | 7.0 | 14.0 | 0.00 | 0.00 | 0.00 | 56 | 1006.7 |
| 20260902112519 | 60 | 203 | 5.0 | 8.0 | 0.00 | 0.00 | 0.00 | 58 | 1006.6 |
| 20260902111519 | 59 | 203 | 3.0 | 7.0 | 0.00 | 0.00 | 0.00 | 57 | 1006.4 |
| 20260902110520 | 59 | 225 | 5.0 | 9.0 | 0.00 | 0.00 | 0.00 | 57 | 1006.3 |
| 20260902105519 | 59 | 203 | 5.0 | 8.0 | 0.00 | 0.00 | 0.00 | 57 | 1006.1 |
| 20260902104519 | 59 | 0.0 | 0.0 | 0.00 | 0.00 | 0.00 | 56 | 1006.0 | |
| 20260902103519 | 60 | 203 | 2.0 | 6.0 | 0.00 | 0.00 | 0.00 | 55 | 1005.9 |
| 20260902102519 | 60 | 0.0 | 3.0 | 0.00 | 0.00 | 0.00 | 54 | 1005.9 | |
| 20260902101519 | 60 | 203 | 2.0 | 6.0 | 0.00 | 0.00 | 0.00 | 54 | 1006.0 |
| 20260902100539 | 61 | 0.0 | 3.0 | 0.00 | 0.00 | 0.00 | 53 | 1006.2 | |
| 20260902095519 | 62 | 225 | 5.0 | 8.0 | 0.00 | 0.00 | 0.00 | 51 | 1006.1 |
| 20260902094519 | 61 | 225 | 5.0 | 8.0 | 0.00 | 0.00 | 0.00 | 52 | 1005.9 |
| 20260902093519 | 61 | 225 | 4.0 | 7.0 | 0.00 | 0.00 | 0.00 | 52 | 1005.8 |
| 20260902092519 | 61 | 203 | 4.0 | 7.0 | 0.00 | 0.00 | 0.00 | 54 | 1005.9 |
| 20260902091518 | 61 | 203 | 2.0 | 4.0 | 0.00 | 0.00 | 0.00 | 54 | 1006.0 |
| 20260902090519 | 62 | 203 | 2.0 | 4.0 | 0.00 | 0.00 | 0.00 | 54 | 1005.9 |
| 20260902085519 | 62 | 0.0 | 3.0 | 0.00 | 0.00 | 0.00 | 53 | 1006.1 | |
| 20260902084539 | 62 | 0.0 | 3.0 | 0.00 | 0.00 | 0.00 | 52 | 1006.0 | |
| 20260902083539 | 63 | 0.0 | 0.0 | 0.00 | 0.00 | 0.00 | 52 | 1006.0 | |
| 20260902082518 | 63 | 203 | 1.0 | 3.0 | 0.00 | 0.00 | 0.00 | 51 | 1005.7 |
| 20260902081519 | 64 | 0.0 | 1.0 | 0.00 | 0.00 | 0.00 | 49 | 1005.6 | |
| 20260902080519 | 65 | 225 | 3.0 | 7.0 | 0.00 | 0.00 | 0.00 | 47 | 1005.7 |
| 20260902075519 | 66 | 248 | 4.0 | 9.0 | 0.00 | 0.00 | 0.00 | 46 | 1005.4 |
| 20260902074519 | 66 | 225 | 3.0 | 7.0 | 0.00 | 0.00 | 0.00 | 45 | 1005.4 |
| 20260902073519 | 67 | 225 | 4.0 | 9.0 | 0.00 | 0.00 | 0.00 | 45 | 1005.5 |
| 20260902072519 | 66 | 225 | 5.0 | 11.0 | 0.00 | 0.00 | 0.00 | 47 | 1005.3 |
| 20260902071519 | 66 | 0.0 | 3.0 | 0.00 | 0.00 | 0.00 | 47 | 1005.4 | |
| 20260902070519 | 66 | 225 | 1.0 | 1.0 | 0.00 | 0.00 | 0.00 | 47 | 1005.3 |
| 20260902065518 | 67 | 0.0 | 0.0 | 0.00 | 0.00 | 0.00 | 46 | 1005.2 | |
| 20260902064539 | 68 | 0.0 | 0.0 | 0.00 | 0.00 | 0.00 | 44 | 1005.1 | |
| 20260902063519 | 69 | 270 | 2.0 | 4.0 | 0.00 | 0.00 | 0.00 | 41 | 1005.1 |
| 20260902062519 | 69 | 248 | 6.0 | 9.0 | 0.00 | 0.00 | 0.00 | 41 | 1005.0 |
| 20260902061519 | 69 | 248 | 4.0 | 7.0 | 0.00 | 0.00 | 0.00 | 44 | 1005.0 |
| 20260902060519 | 69 | 225 | 4.0 | 7.0 | 0.00 | 0.00 | 0.00 | 43 | 1004.9 |